createdAt,value
2023-05-05T00:01:26.231Z,100156.88
2023-05-05T00:03:30.197Z,100152.34
2023-05-05T00:05:33.229Z,100140.81
2023-05-05T00:07:36.119Z,100153.19
2023-05-05T00:09:39.007Z,100137.63
2023-05-05T00:11:41.859Z,100146.03
2023-05-05T00:13:46.140Z,100138.59
2023-05-05T00:15:50.486Z,100137.13
2023-05-05T00:17:53.471Z,100149.78
2023-05-05T00:19:56.586Z,100146.75
2023-05-05T00:21:59.590Z,100139.69
2023-05-05T00:24:03.042Z,100147.34
2023-05-05T00:26:06.464Z,100145.66
2023-05-05T00:28:09.418Z,100139.59
2023-05-05T00:30:14.497Z,100134.50
2023-05-05T00:32:17.368Z,100132.91
2023-05-05T00:34:20.631Z,100122.41
2023-05-05T00:36:23.495Z,100122.19
2023-05-05T00:38:26.418Z,100126.94
2023-05-05T00:40:30.074Z,100120.22
2023-05-05T00:42:40.746Z,100123.53
2023-05-05T00:44:44.862Z,100131.28
2023-05-05T00:46:49.239Z,100118.91
2023-05-05T00:48:52.420Z,100119.28
2023-05-05T00:50:55.388Z,100114.78
2023-05-05T00:53:01.096Z,100118.66
2023-05-05T00:55:04.475Z,100119.25
2023-05-05T00:57:07.855Z,100125.25
2023-05-05T00:59:10.887Z,100116.25
2023-05-05T01:01:15.419Z,100117.56
2023-05-05T01:03:19.982Z,100124.38
2023-05-05T01:05:23.792Z,100124.16
2023-05-05T01:07:33.162Z,100124.25
2023-05-05T01:09:40.341Z,100115.03
2023-05-05T01:11:47.594Z,100117.94
2023-05-05T01:13:55.420Z,100113.19
2023-05-05T01:16:04.702Z,100123.16
2023-05-05T01:18:12.893Z,100121.34
2023-05-05T01:20:22.643Z,100121.81
2023-05-05T01:22:28.745Z,100117.94
2023-05-05T01:24:47.604Z,100110.16
2023-05-05T01:26:56.654Z,100110.75
2023-05-05T01:29:12.304Z,100118.66
2023-05-05T01:31:24.683Z,100120.34
2023-05-05T01:33:34.811Z,100112.69
2023-05-05T01:35:41.750Z,100108.19
2023-05-05T01:37:48.787Z,100115.97
2023-05-05T01:39:54.417Z,100121.81
2023-05-05T01:42:01.233Z,100119.03
2023-05-05T01:44:05.942Z,100120.56
2023-05-05T01:46:09.557Z,100115.63
2023-05-05T01:48:12.929Z,100110.03
2023-05-05T01:50:17.591Z,100113.31
2023-05-05T01:52:21.350Z,100116.25
2023-05-05T01:54:25.217Z,100108.31
2023-05-05T01:56:28.910Z,100115.25
2023-05-05T01:58:33.470Z,100111.97
2023-05-05T02:00:36.790Z,100114.03
2023-05-05T02:02:40.452Z,100119.41
2023-05-05T02:04:44.995Z,100125.25
2023-05-05T02:06:52.937Z,100130.34
2023-05-05T02:08:58.323Z,100121.81
2023-05-05T02:11:01.839Z,100125.94
2023-05-05T02:13:05.795Z,100120.97
2023-05-05T02:15:10.765Z,100128.13
2023-05-05T02:17:17.254Z,100132.03
2023-05-05T02:19:20.670Z,100133.03
2023-05-05T02:21:25.353Z,100128.88
2023-05-05T02:23:29.923Z,100126.69
2023-05-05T02:25:38.556Z,100131.06
2023-05-05T02:27:43.177Z,100135.31
2023-05-05T02:29:49.002Z,100129.22
2023-05-05T02:31:54.814Z,100133.03
2023-05-05T02:34:03.644Z,100129.84
2023-05-05T02:36:13.764Z,100129.47
2023-05-05T02:38:29.391Z,100136.56
2023-05-05T02:40:38.529Z,100138.63
2023-05-05T02:42:42.934Z,100141.53
2023-05-05T02:44:49.136Z,100140.66
2023-05-05T02:46:52.297Z,100142.25
2023-05-05T02:48:55.325Z,100146.50
2023-05-05T02:50:58.287Z,100151.00
2023-05-05T02:53:07.109Z,100158.03
2023-05-05T02:55:11.586Z,100142.09
2023-05-05T02:57:19.819Z,100143.91
2023-05-05T02:59:36.646Z,100142.94
2023-05-05T03:01:57.480Z,100146.13
2023-05-05T03:04:08.511Z,100154.31
2023-05-05T03:06:18.976Z,100156.91
2023-05-05T03:08:29.589Z,100157.28
2023-05-05T03:10:39.314Z,100158.47
2023-05-05T03:12:46.814Z,100165.31
2023-05-05T03:14:57.051Z,100162.06
2023-05-05T03:17:00.992Z,100169.84
2023-05-05T03:19:04.690Z,100171.19
2023-05-05T03:21:09.034Z,100173.34
2023-05-05T03:23:15.515Z,100174.59
2023-05-05T03:25:20.400Z,100173.25
2023-05-05T03:27:25.486Z,100178.22
2023-05-05T03:29:29.612Z,100185.13
2023-05-05T03:31:33.519Z,100181.69
2023-05-05T03:33:37.730Z,100186.97
2023-05-05T03:35:40.568Z,100184.41
2023-05-05T03:37:46.197Z,100186.31
2023-05-05T03:39:51.815Z,100191.47
2023-05-05T03:41:54.773Z,100197.03
2023-05-05T03:44:00.063Z,100187.56
2023-05-05T03:46:03.493Z,100189.63
2023-05-05T03:48:09.579Z,100199.78
2023-05-05T03:50:12.828Z,100189.94
2023-05-05T03:52:15.734Z,100191.81
2023-05-05T03:54:19.865Z,100193.91
2023-05-05T03:56:22.796Z,100200.06
2023-05-05T03:58:27.584Z,100191.78
2023-05-05T04:00:32.190Z,100184.53
2023-05-05T04:02:35.412Z,100188.91
2023-05-05T04:04:38.296Z,100200.97
2023-05-05T04:06:41.170Z,100205.72
2023-05-05T04:08:44.668Z,100194.25
2023-05-05T04:10:47.520Z,100200.44
2023-05-05T04:12:51.273Z,100195.22
2023-05-05T04:14:54.466Z,100200.06
2023-05-05T04:16:59.267Z,100194.63
2023-05-05T04:19:02.604Z,100197.16
2023-05-05T04:21:06.665Z,100203.13
2023-05-05T04:23:09.737Z,100195.25
2023-05-05T04:25:13.045Z,100202.56
2023-05-05T04:27:16.448Z,100202.22
2023-05-05T04:29:19.959Z,100200.41
2023-05-05T04:31:23.316Z,100200.28
2023-05-05T04:33:28.369Z,100203.78
2023-05-05T04:35:32.017Z,100211.78
2023-05-05T04:37:35.216Z,100214.03
2023-05-05T04:39:38.129Z,100210.50
2023-05-05T04:41:41.095Z,100214.25
2023-05-05T04:43:44.763Z,100210.75
2023-05-05T04:45:54.560Z,100207.50
2023-05-05T04:48:00.186Z,100209.69
2023-05-05T04:50:04.842Z,100218.41
2023-05-05T04:52:10.984Z,100214.06
2023-05-05T04:54:15.625Z,100209.63
2023-05-05T04:56:19.112Z,100210.34
2023-05-05T04:58:21.997Z,100215.84
2023-05-05T05:00:25.201Z,100220.22
2023-05-05T05:02:29.631Z,100224.03
2023-05-05T05:04:32.535Z,100221.31
2023-05-05T05:06:36.769Z,100223.25
2023-05-05T05:08:39.681Z,100224.72
2023-05-05T05:10:42.586Z,100227.38
2023-05-05T05:12:45.693Z,100231.38
2023-05-05T05:14:48.672Z,100229.47
2023-05-05T05:16:52.591Z,100234.41
2023-05-05T05:18:59.091Z,100239.22
2023-05-05T05:21:03.798Z,100242.69
2023-05-05T05:23:08.914Z,100242.50
2023-05-05T05:25:17.354Z,100247.28
2023-05-05T05:27:22.184Z,100246.84
2023-05-05T05:29:27.196Z,100246.59
2023-05-05T05:31:31.219Z,100255.03
2023-05-05T05:33:34.256Z,100254.16
2023-05-05T05:35:37.429Z,100250.41
2023-05-05T05:37:40.331Z,100247.75
2023-05-05T05:39:44.756Z,100253.81
2023-05-05T05:41:48.293Z,100252.50
2023-05-05T05:43:51.488Z,100257.16
2023-05-05T05:45:54.476Z,100258.31
2023-05-05T05:47:57.476Z,100253.88
2023-05-05T05:50:00.436Z,100263.34
2023-05-05T05:52:03.867Z,100263.25
2023-05-05T05:54:08.351Z,100258.03
2023-05-05T05:56:12.898Z,100262.56
2023-05-05T05:58:17.345Z,100265.84
2023-05-05T06:00:21.354Z,100266.25
2023-05-05T06:02:31.148Z,100256.69
2023-05-05T06:04:34.287Z,100266.50
2023-05-05T06:06:37.264Z,100260.75
2023-05-05T06:08:40.129Z,100270.63
2023-05-05T06:10:43.626Z,100273.53
2023-05-05T06:12:53.165Z,100265.31
2023-05-05T06:14:56.521Z,100266.16
2023-05-05T06:16:59.828Z,100273.78
2023-05-05T06:19:05.113Z,100275.75
2023-05-05T06:21:08.495Z,100265.84
2023-05-05T06:23:11.910Z,100275.06
2023-05-05T06:25:19.352Z,100273.19
2023-05-05T06:27:22.451Z,100282.22
2023-05-05T06:29:26.900Z,100274.69
2023-05-05T06:31:29.818Z,100282.88
2023-05-05T06:33:32.709Z,100275.50
2023-05-05T06:35:36.023Z,100276.44
2023-05-05T06:37:38.934Z,100271.13
2023-05-05T06:39:42.439Z,100279.19
2023-05-05T06:41:45.320Z,100282.72
2023-05-05T06:43:48.368Z,100286.72
2023-05-05T06:45:55.943Z,100288.72
2023-05-05T06:47:58.967Z,100279.38
2023-05-05T06:50:03.849Z,100282.88
2023-05-05T06:52:08.339Z,100296.56
2023-05-05T06:54:11.393Z,100279.38
2023-05-05T06:56:14.297Z,100281.91
2023-05-05T06:58:17.386Z,100282.28
2023-05-05T07:00:22.290Z,100288.50
2023-05-05T07:02:27.007Z,100284.28
2023-05-05T07:04:30.429Z,100285.88
2023-05-05T07:06:33.767Z,100280.19
2023-05-05T07:08:36.654Z,100280.72
2023-05-05T07:10:39.535Z,100282.28
2023-05-05T07:12:42.551Z,100279.34
2023-05-05T07:14:45.485Z,100276.41
2023-05-05T07:16:48.909Z,100289.66
2023-05-05T07:18:53.161Z,100284.06
2023-05-05T07:20:56.224Z,100282.84
2023-05-05T07:22:59.108Z,100286.94
2023-05-05T07:25:02.539Z,100289.34
2023-05-05T07:27:05.468Z,100296.59
2023-05-05T07:29:08.367Z,100303.00
2023-05-05T07:31:11.364Z,100296.00
2023-05-05T07:33:14.545Z,100299.47
2023-05-05T07:35:19.255Z,100305.59
2023-05-05T07:37:22.308Z,100299.78
2023-05-05T07:39:25.453Z,100292.63
2023-05-05T07:41:28.732Z,100296.41
2023-05-05T07:43:31.695Z,100296.47
2023-05-05T07:45:34.923Z,100296.78
2023-05-05T07:47:38.058Z,100303.44
2023-05-05T07:49:41.541Z,100312.06
2023-05-05T07:51:46.309Z,100307.28
2023-05-05T07:53:49.235Z,100312.34
2023-05-05T07:55:52.367Z,100318.16
2023-05-05T07:57:56.443Z,100329.97
2023-05-05T07:59:59.381Z,100337.78
2023-05-05T08:02:02.310Z,100329.88
2023-05-05T08:04:05.387Z,100337.03
2023-05-05T08:06:09.938Z,100337.97
2023-05-05T08:08:14.386Z,100327.97
2023-05-05T08:10:17.307Z,100328.81
2023-05-05T08:12:20.212Z,100334.41
2023-05-05T08:14:23.496Z,100336.25
2023-05-05T08:16:26.557Z,100336.47
2023-05-05T08:18:29.530Z,100329.41
2023-05-05T08:20:32.744Z,100332.22
2023-05-05T08:22:35.776Z,100336.88
2023-05-05T08:24:40.085Z,100333.47
2023-05-05T08:26:43.623Z,100332.19
2023-05-05T08:28:46.654Z,100336.44
2023-05-05T08:30:49.706Z,100345.59
2023-05-05T08:32:52.850Z,100347.19
2023-05-05T08:34:56.428Z,100344.75
2023-05-05T08:36:59.386Z,100345.84
2023-05-05T08:39:02.330Z,100357.97
2023-05-05T08:41:07.807Z,100367.22
2023-05-05T08:43:10.804Z,100357.72
2023-05-05T08:45:13.913Z,100357.31
2023-05-05T08:47:17.078Z,100350.91
2023-05-05T08:49:20.322Z,100353.84
2023-05-05T08:51:23.888Z,100344.75
2023-05-05T08:53:33.916Z,100351.34
2023-05-05T08:55:37.523Z,100350.88
2023-05-05T08:57:45.564Z,100338.50
2023-05-05T08:59:49.728Z,100331.59
2023-05-05T09:01:54.478Z,100332.47
2023-05-05T09:03:58.984Z,100332.44
2023-05-05T09:06:02.139Z,100332.22
2023-05-05T09:08:06.661Z,100332.25
2023-05-05T09:10:11.128Z,100328.88
2023-05-05T09:12:15.744Z,100336.72
2023-05-05T09:14:20.122Z,100335.06
2023-05-05T09:16:23.166Z,100341.53
2023-05-05T09:18:26.694Z,100343.72
2023-05-05T09:20:35.061Z,100343.31
2023-05-05T09:22:39.414Z,100334.72
2023-05-05T09:24:56.784Z,100331.06
2023-05-05T09:27:01.771Z,100321.31
2023-05-05T09:29:05.217Z,100326.16
2023-05-05T09:31:16.455Z,100329.97
2023-05-05T09:33:30.173Z,100326.91
2023-05-05T09:35:51.420Z,100324.50
2023-05-05T09:37:54.356Z,100328.81
2023-05-05T09:39:58.502Z,100329.50
2023-05-05T09:42:01.626Z,100336.81
2023-05-05T09:44:04.600Z,100330.63
2023-05-05T09:46:08.665Z,100340.50
2023-05-05T09:48:31.683Z,100339.69
2023-05-05T09:50:44.496Z,100335.88
2023-05-05T09:52:55.957Z,100337.28
2023-05-05T09:54:59.160Z,100338.09
2023-05-05T09:57:02.428Z,100327.41
2023-05-05T09:59:12.017Z,100327.78
2023-05-05T10:01:23.805Z,100337.88
2023-05-05T10:03:28.816Z,100334.59
2023-05-05T10:05:32.597Z,100343.47
2023-05-05T10:07:36.819Z,100333.53
2023-05-05T10:09:39.704Z,100335.84
2023-05-05T10:11:43.550Z,100320.00
2023-05-05T10:13:46.459Z,100319.34
2023-05-05T10:15:51.038Z,100322.31
2023-05-05T10:18:06.653Z,100325.31
2023-05-05T10:20:14.417Z,100331.31
2023-05-05T10:22:18.724Z,100326.16
2023-05-05T10:24:28.355Z,100326.03
2023-05-05T10:26:35.009Z,100316.66
2023-05-05T10:28:43.432Z,100325.03
2023-05-05T10:30:48.353Z,100325.22
2023-05-05T10:33:07.892Z,100323.75
2023-05-05T10:35:19.112Z,100327.41
2023-05-05T10:37:22.751Z,100317.66
2023-05-05T10:39:26.452Z,100309.44
2023-05-05T10:41:30.946Z,100311.72
2023-05-05T10:43:34.492Z,100308.13
2023-05-05T10:45:38.244Z,100305.72
2023-05-05T10:47:41.545Z,100310.09
2023-05-05T10:49:49.006Z,100299.16
2023-05-05T10:51:58.029Z,100288.31
2023-05-05T10:54:04.600Z,100286.44
2023-05-05T10:56:18.115Z,100274.16
2023-05-05T10:58:43.723Z,100272.00
2023-05-05T11:00:51.415Z,100270.81
2023-05-05T11:03:23.132Z,100265.91
2023-05-05T11:05:26.118Z,100267.91
2023-05-05T11:07:30.384Z,100255.63
2023-05-05T11:09:33.332Z,100255.38
2023-05-05T11:12:02.829Z,100260.22
2023-05-05T11:14:22.354Z,100256.94
2023-05-05T11:16:46.036Z,100257.50
2023-05-05T11:18:49.173Z,100259.19
2023-05-05T11:21:16.949Z,100250.19
2023-05-05T11:23:24.432Z,100243.16
2023-05-05T11:25:48.934Z,100244.94
2023-05-05T11:28:06.953Z,100239.41
2023-05-05T11:30:11.915Z,100238.13
2023-05-05T11:32:17.003Z,100234.28
2023-05-05T11:34:29.564Z,100232.69
2023-05-05T11:36:41.859Z,100234.28
2023-05-05T11:39:05.801Z,100229.53
2023-05-05T11:41:13.890Z,100223.94
2023-05-05T11:43:20.176Z,100225.31
2023-05-05T11:45:24.584Z,100224.47
2023-05-05T11:47:29.563Z,100225.72
2023-05-05T11:49:33.616Z,100221.22
2023-05-05T11:51:36.901Z,100214.16
2023-05-05T11:53:43.546Z,100216.34
2023-05-05T11:55:47.847Z,100217.53
2023-05-05T11:57:50.876Z,100218.88
2023-05-05T11:59:56.435Z,100219.06
2023-05-05T12:01:59.687Z,100226.53
2023-05-05T12:04:03.022Z,100223.75
2023-05-05T12:06:06.899Z,100224.78
2023-05-05T12:08:10.382Z,100224.25
2023-05-05T12:10:13.469Z,100216.78
2023-05-05T12:12:18.156Z,100226.03
2023-05-05T12:14:21.754Z,100225.16
2023-05-05T12:16:24.733Z,100218.31
2023-05-05T12:18:27.653Z,100225.25
2023-05-05T12:20:32.468Z,100219.94
2023-05-05T12:22:36.777Z,100221.50
2023-05-05T12:24:39.791Z,100225.00
2023-05-05T12:26:43.585Z,100224.56
2023-05-05T12:28:49.317Z,100230.41
2023-05-05T12:30:58.777Z,100230.25
2023-05-05T12:33:02.469Z,100235.44
2023-05-05T12:35:08.945Z,100232.09
2023-05-05T12:37:12.392Z,100230.06
2023-05-05T12:39:15.294Z,100228.66
2023-05-05T12:41:21.226Z,100233.59
2023-05-05T12:43:31.913Z,100239.00
2023-05-05T12:45:37.406Z,100241.03
2023-05-05T12:47:44.005Z,100238.94
2023-05-05T12:49:51.331Z,100247.28
2023-05-05T12:51:55.201Z,100248.56
2023-05-05T12:54:05.759Z,100263.00
2023-05-05T12:56:30.594Z,100281.84
2023-05-05T12:58:48.256Z,100300.38
2023-05-05T13:01:13.313Z,100305.72
2023-05-05T13:03:22.203Z,100307.22
2023-05-05T13:05:32.551Z,100306.19
2023-05-05T13:07:35.722Z,100315.66
2023-05-05T13:09:39.103Z,100315.19
2023-05-05T13:11:42.225Z,100321.09
2023-05-05T13:13:46.172Z,100323.81
2023-05-05T13:15:49.249Z,100318.66
2023-05-05T13:18:00.366Z,100313.41
2023-05-05T13:20:03.899Z,100305.22
2023-05-05T13:22:06.779Z,100292.53
2023-05-05T13:24:23.368Z,100291.53
2023-05-05T13:26:34.612Z,100302.66
2023-05-05T13:28:37.636Z,100300.69
2023-05-05T13:30:41.041Z,100288.78
2023-05-05T13:32:44.707Z,100270.50
2023-05-05T13:34:49.345Z,100251.47
2023-05-05T13:36:52.515Z,100262.94
2023-05-05T13:38:55.497Z,100285.41
2023-05-05T13:40:58.627Z,100303.72
2023-05-05T13:43:01.617Z,100303.22
2023-05-05T13:45:05.729Z,100302.25
2023-05-05T13:47:08.807Z,100300.31
2023-05-05T13:49:11.874Z,100297.16
2023-05-05T13:51:16.772Z,100294.13
2023-05-05T13:53:19.786Z,100292.38
2023-05-05T13:55:23.031Z,100285.94
2023-05-05T13:57:27.073Z,100288.22
2023-05-05T13:59:30.328Z,100289.84
2023-05-05T14:01:33.270Z,100298.75
2023-05-05T14:03:36.247Z,100293.06
2023-05-05T14:05:42.600Z,100301.34
2023-05-05T14:07:47.594Z,100303.72
2023-05-05T14:09:50.732Z,100297.72
2023-05-05T14:11:53.915Z,100287.50
2023-05-05T14:13:56.864Z,100285.22
2023-05-05T14:16:00.212Z,100279.78
2023-05-05T14:18:03.295Z,100265.88
2023-05-05T14:20:07.714Z,100258.06
2023-05-05T14:22:10.618Z,100262.22
2023-05-05T14:24:15.128Z,100260.03
2023-05-05T14:26:18.157Z,100256.66
2023-05-05T14:28:21.139Z,100251.47
2023-05-05T14:30:24.504Z,100254.88
2023-05-05T14:32:27.470Z,100258.31
2023-05-05T14:34:30.455Z,100256.59
2023-05-05T14:36:33.466Z,100257.72
2023-05-05T14:38:36.489Z,100261.78
2023-05-05T14:40:41.147Z,100262.59
2023-05-05T14:42:44.345Z,100261.94
2023-05-05T14:44:47.727Z,100271.00
2023-05-05T14:46:51.248Z,100268.69
2023-05-05T14:48:54.281Z,100273.44
2023-05-05T14:50:57.313Z,100271.00
2023-05-05T14:53:00.725Z,100267.81
2023-05-05T14:55:03.963Z,100266.66
2023-05-05T14:57:08.600Z,100268.34
2023-05-05T14:59:11.537Z,100260.03
2023-05-05T15:01:14.479Z,100265.13
2023-05-05T15:03:17.606Z,100270.13
2023-05-05T15:05:20.828Z,100263.31
2023-05-05T15:07:28.296Z,100260.38
2023-05-05T15:09:31.280Z,100255.63
2023-05-05T15:11:34.411Z,100261.84
2023-05-05T15:13:41.315Z,100257.22
2023-05-05T15:15:45.073Z,100244.44
2023-05-05T15:17:48.287Z,100251.31
2023-05-05T15:19:51.448Z,100248.59
2023-05-05T15:21:54.560Z,100252.00
2023-05-05T15:23:57.563Z,100247.34
2023-05-05T15:26:00.530Z,100253.94
2023-05-05T15:28:03.748Z,100257.13
2023-05-05T15:30:12.023Z,100251.09
2023-05-05T15:32:14.872Z,100249.75
2023-05-05T15:34:17.805Z,100251.13
2023-05-05T15:36:22.624Z,100261.28
2023-05-05T15:38:25.840Z,100263.50
2023-05-05T15:40:29.005Z,100261.09
2023-05-05T15:42:33.585Z,100278.88
2023-05-05T15:44:36.677Z,100284.34
2023-05-05T15:46:41.291Z,100296.69
2023-05-05T15:48:44.458Z,100305.56
2023-05-05T15:50:47.676Z,100305.59
2023-05-05T15:52:50.712Z,100295.31
2023-05-05T15:54:53.638Z,100299.41
2023-05-05T15:56:56.520Z,100310.00
2023-05-05T15:58:59.517Z,100315.22
2023-05-05T16:01:02.451Z,100314.78
2023-05-05T16:03:07.169Z,100314.19
2023-05-05T16:05:10.956Z,100319.50
2023-05-05T16:07:14.098Z,100321.06
2023-05-05T16:09:17.884Z,100327.94
2023-05-05T16:11:22.448Z,100326.91
2023-05-05T16:13:25.865Z,100334.13
2023-05-05T16:15:28.783Z,100350.06
2023-05-05T16:17:31.723Z,100352.66
2023-05-05T16:19:36.042Z,100361.63
2023-05-05T16:21:39.205Z,100367.38
2023-05-05T16:23:42.140Z,100362.28
2023-05-05T16:25:45.131Z,100367.72
2023-05-05T16:27:50.402Z,100366.56
2023-05-05T16:29:54.310Z,100366.56
2023-05-05T16:31:57.314Z,100376.78
2023-05-05T16:34:00.376Z,100383.81
2023-05-05T16:36:05.478Z,100387.66
2023-05-05T16:38:08.367Z,100392.19
2023-05-05T16:40:12.494Z,100393.72
2023-05-05T16:42:15.912Z,100400.69
2023-05-05T16:44:18.919Z,100399.63
2023-05-05T16:46:22.084Z,100404.81
2023-05-05T16:48:25.184Z,100405.41
2023-05-05T16:50:28.152Z,100399.16
2023-05-05T16:52:32.472Z,100397.91
2023-05-05T16:54:35.632Z,100402.22
2023-05-05T16:56:38.541Z,100392.91
2023-05-05T16:58:41.745Z,100387.66
2023-05-05T17:00:46.742Z,100402.56
2023-05-05T17:02:50.157Z,100394.03
2023-05-05T17:04:53.433Z,100394.91
2023-05-05T17:06:57.546Z,100382.50
2023-05-05T17:09:02.193Z,100391.91
2023-05-05T17:11:05.130Z,100388.03
2023-05-05T17:13:09.012Z,100392.97
2023-05-05T17:15:12.291Z,100384.19
2023-05-05T17:17:15.408Z,100383.13
2023-05-05T17:19:18.334Z,100371.31
2023-05-05T17:21:21.271Z,100371.41
2023-05-05T17:23:24.148Z,100375.53
2023-05-05T17:25:29.012Z,100372.16
2023-05-05T17:27:32.238Z,100372.28
2023-05-05T17:29:39.421Z,100368.03
2023-05-05T17:31:42.930Z,100366.34
2023-05-05T17:33:45.904Z,100374.69
2023-05-05T17:35:49.099Z,100376.59
2023-05-05T17:37:52.429Z,100369.56
2023-05-05T17:39:58.516Z,100374.59
2023-05-05T17:42:02.836Z,100373.47
2023-05-05T17:44:06.115Z,100368.22
2023-05-05T17:46:09.114Z,100375.38
2023-05-05T17:48:12.428Z,100377.75
2023-05-05T17:50:15.653Z,100378.91
2023-05-05T17:52:18.675Z,100382.16
2023-05-05T17:54:21.829Z,100378.47
2023-05-05T17:56:24.778Z,100385.38
2023-05-05T17:58:29.154Z,100386.63
2023-05-05T18:00:32.341Z,100395.78
2023-05-05T18:02:36.866Z,100399.69
2023-05-05T18:04:39.948Z,100407.09
2023-05-05T18:06:43.052Z,100388.09
2023-05-05T18:08:46.764Z,100391.22
2023-05-05T18:10:50.100Z,100395.50
2023-05-05T18:12:53.120Z,100390.84
2023-05-05T18:14:57.683Z,100392.28
2023-05-05T18:17:01.322Z,100387.94
2023-05-05T18:19:04.425Z,100391.56
2023-05-05T18:21:08.343Z,100397.53
2023-05-05T18:23:11.299Z,100403.88
2023-05-05T18:25:14.190Z,100398.00
2023-05-05T18:27:17.601Z,100402.00
2023-05-05T18:29:21.593Z,100402.75
2023-05-05T18:31:26.719Z,100399.69
2023-05-05T18:33:29.846Z,100403.13
2023-05-05T18:35:35.269Z,100400.06
2023-05-05T18:37:38.825Z,100397.81
2023-05-05T18:39:43.935Z,100395.72
2023-05-05T18:41:47.180Z,100398.97
2023-05-05T18:43:50.063Z,100393.63
2023-05-05T18:45:54.320Z,100397.41
2023-05-05T18:47:58.690Z,100396.25
2023-05-05T18:50:01.905Z,100404.38
2023-05-05T18:52:05.151Z,100407.50
2023-05-05T18:54:08.246Z,100404.66
2023-05-05T18:56:11.196Z,100401.91
2023-05-05T18:58:14.280Z,100404.06
2023-05-05T19:00:19.821Z,100405.97
2023-05-05T19:02:23.094Z,100403.84
2023-05-05T19:04:31.584Z,100398.00
2023-05-05T19:06:34.933Z,100399.50
2023-05-05T19:08:39.018Z,100401.09
2023-05-05T19:10:41.991Z,100410.34
2023-05-05T19:12:45.057Z,100411.09
2023-05-05T19:14:49.382Z,100417.81
2023-05-05T19:16:52.954Z,100410.56
2023-05-05T19:18:58.738Z,100414.88
2023-05-05T19:21:03.681Z,100414.09
2023-05-05T19:23:07.112Z,100415.84
2023-05-05T19:25:11.516Z,100418.41
2023-05-05T19:27:16.688Z,100420.56
2023-05-05T19:29:20.627Z,100417.34
2023-05-05T19:31:27.565Z,100417.00
2023-05-05T19:33:30.737Z,100414.28
2023-05-05T19:35:33.639Z,100414.97
2023-05-05T19:37:37.913Z,100411.25
2023-05-05T19:39:43.113Z,100414.09
2023-05-05T19:41:46.241Z,100415.78
2023-05-05T19:43:51.449Z,100419.63
2023-05-05T19:45:54.389Z,100415.25
2023-05-05T19:47:58.027Z,100409.75
2023-05-05T19:50:01.077Z,100418.41
2023-05-05T19:52:04.190Z,100410.53
2023-05-05T19:54:08.598Z,100409.47
2023-05-05T19:56:11.804Z,100411.25
2023-05-05T19:58:14.910Z,100413.94
2023-05-05T20:00:18.686Z,100416.03
2023-05-05T20:02:26.644Z,100424.31
2023-05-05T20:04:29.828Z,100420.53
2023-05-05T20:06:33.504Z,100416.47
2023-05-05T20:08:36.734Z,100426.19
2023-05-05T20:10:41.161Z,100427.16
2023-05-05T20:12:48.062Z,100420.00
2023-05-05T20:14:51.420Z,100422.31
2023-05-05T20:16:54.800Z,100422.31
2023-05-05T20:18:58.012Z,100422.13
2023-05-05T20:21:03.423Z,100433.63
2023-05-05T20:23:06.698Z,100428.22
2023-05-05T20:25:10.367Z,100427.44
2023-05-05T20:27:14.806Z,100439.97
2023-05-05T20:29:19.723Z,100435.03
2023-05-05T20:31:22.904Z,100440.06
2023-05-05T20:33:25.973Z,100440.16
2023-05-05T20:35:29.240Z,100439.88
2023-05-05T20:37:32.618Z,100435.03
2023-05-05T20:39:35.736Z,100433.31
2023-05-05T20:41:40.477Z,100428.19
2023-05-05T20:43:44.802Z,100433.97
2023-05-05T20:45:48.057Z,100430.25
2023-05-05T20:47:51.079Z,100428.66
2023-05-05T20:49:54.623Z,100434.41
2023-05-05T20:51:59.158Z,100422.41
2023-05-05T20:54:02.377Z,100427.50
2023-05-05T20:56:06.444Z,100426.06
2023-05-05T20:58:11.157Z,100425.81
2023-05-05T21:00:16.478Z,100424.25
2023-05-05T21:02:19.783Z,100424.25
2023-05-05T21:04:23.045Z,100428.38
2023-05-05T21:06:25.988Z,100429.66
2023-05-05T21:08:30.557Z,100426.22
2023-05-05T21:10:34.436Z,100427.50
2023-05-05T21:12:37.487Z,100422.28
2023-05-05T21:14:44.419Z,100432.50
2023-05-05T21:16:49.406Z,100430.09
2023-05-05T21:18:52.355Z,100436.84
2023-05-05T21:20:55.298Z,100432.66
2023-05-05T21:22:58.247Z,100447.81
2023-05-05T21:25:11.162Z,100432.03
2023-05-05T21:27:14.193Z,100432.56
2023-05-05T21:29:17.148Z,100435.41
2023-05-05T21:31:22.227Z,100439.75
2023-05-05T21:33:27.433Z,100438.38
2023-05-05T21:35:30.424Z,100428.09
2023-05-05T21:37:33.760Z,100433.41
2023-05-05T21:39:36.785Z,100431.84
2023-05-05T21:41:39.763Z,100431.94
2023-05-05T21:43:42.996Z,100433.53
2023-05-05T21:45:46.268Z,100436.53
2023-05-05T21:47:49.451Z,100447.06
2023-05-05T21:49:53.882Z,100439.03
2023-05-05T21:51:56.777Z,100440.63
2023-05-05T21:53:59.759Z,100439.31
2023-05-05T21:56:02.868Z,100441.13
2023-05-05T21:58:05.788Z,100437.28
2023-05-05T22:00:10.755Z,100437.28
2023-05-05T22:02:17.401Z,100431.81
2023-05-05T22:04:20.382Z,100434.47
2023-05-05T22:06:25.165Z,100436.41
2023-05-05T22:08:28.206Z,100440.03
2023-05-05T22:10:31.797Z,100429.41
2023-05-05T22:12:34.877Z,100435.03
2023-05-05T22:14:37.795Z,100432.50
2023-05-05T22:16:40.941Z,100438.69
2023-05-05T22:18:44.329Z,100434.72
2023-05-05T22:20:47.254Z,100431.44
2023-05-05T22:22:51.550Z,100437.97
2023-05-05T22:24:54.471Z,100437.91
2023-05-05T22:26:57.431Z,100437.53
2023-05-05T22:29:00.616Z,100438.16
2023-05-05T22:31:07.443Z,100443.16
2023-05-05T22:33:10.858Z,100440.50
2023-05-05T22:35:14.290Z,100442.84
2023-05-05T22:37:17.610Z,100435.44
2023-05-05T22:39:22.074Z,100438.72
2023-05-05T22:41:26.030Z,100440.84
2023-05-05T22:43:29.412Z,100440.34
2023-05-05T22:45:32.448Z,100440.03
2023-05-05T22:47:35.372Z,100442.28
2023-05-05T22:49:38.550Z,100442.13
2023-05-05T22:51:41.609Z,100447.44
2023-05-05T22:53:44.523Z,100445.34
2023-05-05T22:55:49.458Z,100445.81
2023-05-05T22:57:53.260Z,100441.91
2023-05-05T22:59:57.411Z,100447.91
2023-05-05T23:02:01.816Z,100445.50
2023-05-05T23:04:04.996Z,100449.88
2023-05-05T23:06:08.396Z,100448.16
2023-05-05T23:08:11.290Z,100449.09
2023-05-05T23:10:14.412Z,100446.59
2023-05-05T23:12:18.716Z,100444.09
2023-05-05T23:14:21.633Z,100451.91
2023-05-05T23:16:24.568Z,100439.25
2023-05-05T23:18:27.442Z,100445.19
2023-05-05T23:20:30.719Z,100449.41
2023-05-05T23:22:34.079Z,100445.72
2023-05-05T23:24:36.941Z,100440.97
2023-05-05T23:26:40.245Z,100440.97
2023-05-05T23:28:44.673Z,100442.25
2023-05-05T23:30:47.696Z,100449.25
2023-05-05T23:32:50.729Z,100443.78
2023-05-05T23:34:54.997Z,100446.25
2023-05-05T23:36:58.105Z,100454.22
2023-05-05T23:39:02.131Z,100448.00
2023-05-05T23:41:06.247Z,100454.22
2023-05-05T23:43:09.288Z,100457.44
2023-05-05T23:45:13.637Z,100443.75